createdAt,value
2022-10-21T00:02:48.935Z,3.67
2022-10-21T00:07:51.559Z,3.80
2022-10-21T00:12:55.617Z,3.35
2022-10-21T00:17:58.194Z,3.83
2022-10-21T00:23:00.880Z,3.00
2022-10-21T00:28:04.915Z,3.30
2022-10-21T00:33:07.523Z,3.58
2022-10-21T00:38:10.202Z,3.50
2022-10-21T00:43:14.306Z,3.22
2022-10-21T00:48:25.342Z,3.63
2022-10-21T00:53:28.192Z,4.05
2022-10-21T00:58:33.354Z,3.45
2022-10-21T01:03:36.813Z,3.45
2022-10-21T01:08:40.538Z,2.88
2022-10-21T01:13:52.762Z,3.35
2022-10-21T01:19:00.341Z,3.25
2022-10-21T01:24:20.034Z,3.05
2022-10-21T01:29:51.150Z,2.85
2022-10-21T01:34:59.476Z,3.58
2022-10-21T01:40:06.484Z,3.70
2022-10-21T01:45:13.855Z,3.55
2022-10-21T01:50:20.365Z,2.78
2022-10-21T01:55:24.883Z,2.78
2022-10-21T02:00:27.504Z,2.70
2022-10-21T02:05:35.237Z,3.47
2022-10-21T02:10:40.221Z,3.55
2022-10-21T02:15:43.814Z,3.03
2022-10-21T02:20:51.382Z,2.42
2022-10-21T02:25:54.101Z,2.70
2022-10-21T02:31:06.140Z,2.22
2022-10-21T02:36:15.413Z,3.40
2022-10-21T02:41:22.262Z,3.20
2022-10-21T02:46:25.725Z,3.45
2022-10-21T02:51:29.781Z,3.80
2022-10-21T02:56:32.527Z,3.70
2022-10-21T03:01:35.178Z,3.33
2022-10-21T03:06:39.554Z,3.95
2022-10-21T03:11:42.220Z,3.30
2022-10-21T03:16:44.877Z,3.72
2022-10-21T03:21:48.859Z,3.47
2022-10-21T03:26:51.450Z,3.55
2022-10-21T03:31:54.033Z,4.00
2022-10-21T03:36:58.027Z,4.00
2022-10-21T03:42:00.647Z,5.72
2022-10-21T03:47:03.269Z,4.13
2022-10-21T03:52:07.237Z,3.70
2022-10-21T03:57:10.093Z,3.55
2022-10-21T04:02:12.838Z,4.10
2022-10-21T04:07:16.794Z,8.15
2022-10-21T04:12:19.388Z,4.07
2022-10-21T04:17:22.007Z,3.15
2022-10-21T04:22:26.133Z,3.78
2022-10-21T04:27:28.740Z,4.00
2022-10-21T04:32:31.370Z,4.00
2022-10-21T04:37:35.334Z,3.90
2022-10-21T04:42:37.951Z,3.80
2022-10-21T04:47:40.861Z,4.43
2022-10-21T04:52:45.160Z,4.07
2022-10-21T04:57:47.774Z,4.57
2022-10-21T05:02:50.389Z,3.70
2022-10-21T05:07:54.727Z,4.13
2022-10-21T05:12:58.064Z,4.13
2022-10-21T05:18:00.777Z,3.95
2022-10-21T05:23:04.860Z,4.10
2022-10-21T05:28:07.432Z,3.95
2022-10-21T05:33:10.129Z,4.28
2022-10-21T05:38:14.028Z,4.05
2022-10-21T05:43:16.671Z,4.60
2022-10-21T05:48:19.347Z,3.60
2022-10-21T05:53:24.708Z,4.45
2022-10-21T05:58:28.402Z,4.43
2022-10-21T06:03:33.592Z,4.00
2022-10-21T06:08:39.643Z,4.63
2022-10-21T06:13:43.095Z,3.65
2022-10-21T06:18:45.746Z,4.93
2022-10-21T06:23:53.857Z,4.85
2022-10-21T06:28:56.605Z,4.05
2022-10-21T06:33:59.237Z,4.05
2022-10-21T06:39:03.220Z,4.68
2022-10-21T06:44:06.162Z,3.90
2022-10-21T06:49:09.661Z,4.13
2022-10-21T06:54:13.864Z,5.20
2022-10-21T06:59:16.743Z,5.18
2022-10-21T07:04:19.383Z,3.67
2022-10-21T07:09:23.479Z,4.90
2022-10-21T07:14:26.707Z,5.18
2022-10-21T07:19:29.421Z,5.05
2022-10-21T07:24:33.453Z,5.45
2022-10-21T07:29:36.084Z,4.95
2022-10-21T07:34:38.830Z,4.88
2022-10-21T07:39:42.809Z,4.32
2022-10-21T07:44:45.389Z,5.30
2022-10-21T07:49:48.033Z,4.53
2022-10-21T07:54:52.092Z,5.28
2022-10-21T07:59:54.872Z,5.18
2022-10-21T08:04:57.471Z,4.53
2022-10-21T08:10:01.595Z,5.20
2022-10-21T08:15:04.974Z,5.05
2022-10-21T08:20:08.999Z,5.57
2022-10-21T08:25:16.674Z,5.80
2022-10-21T08:30:19.402Z,7.82
2022-10-21T08:35:22.207Z,4.63
2022-10-21T08:40:26.524Z,5.13
2022-10-21T08:45:32.011Z,5.30
2022-10-21T08:50:39.046Z,5.68
2022-10-21T08:55:45.096Z,5.25
2022-10-21T09:00:49.771Z,4.78
2022-10-21T09:06:08.933Z,4.32
2022-10-21T09:11:20.370Z,4.10
2022-10-21T09:16:26.309Z,4.45
2022-10-21T09:21:39.130Z,3.80
2022-10-21T09:26:44.647Z,3.92
2022-10-21T09:31:53.084Z,4.40
2022-10-21T09:36:59.336Z,4.47
2022-10-21T09:42:07.344Z,4.28
2022-10-21T09:47:23.295Z,4.63
2022-10-21T09:52:30.461Z,4.13
2022-10-21T09:57:42.315Z,4.60
2022-10-21T10:02:46.449Z,4.30
2022-10-21T10:07:49.124Z,4.65
2022-10-21T10:12:58.496Z,5.32
2022-10-21T10:18:01.569Z,3.88
2022-10-21T10:23:16.928Z,4.45
2022-10-21T10:28:25.956Z,4.43
2022-10-21T10:33:30.927Z,7.75
2022-10-21T10:38:36.114Z,4.72
2022-10-21T10:43:45.793Z,4.55
2022-10-21T10:48:51.541Z,4.55
2022-10-21T10:54:02.384Z,4.95
2022-10-21T10:59:17.824Z,4.80
2022-10-21T11:04:24.835Z,5.07
2022-10-21T11:09:28.250Z,5.13
2022-10-21T11:14:32.453Z,5.10
2022-10-21T11:19:43.981Z,4.60
2022-10-21T11:24:57.543Z,4.75
2022-10-21T11:30:06.922Z,4.95
2022-10-21T11:35:27.670Z,5.07
2022-10-21T11:40:34.280Z,5.28
2022-10-21T11:45:49.348Z,5.88
2022-10-21T11:50:59.504Z,4.85
2022-10-21T11:56:12.822Z,5.55
2022-10-21T12:01:27.678Z,4.75
2022-10-21T12:06:35.007Z,5.05
2022-10-21T12:11:40.570Z,8.23
2022-10-21T12:16:45.489Z,5.15
2022-10-21T12:21:48.390Z,5.20
2022-10-21T12:26:54.550Z,5.15
2022-10-21T12:32:04.846Z,5.35
2022-10-21T12:37:43.487Z,5.43
2022-10-21T12:42:48.089Z,4.32
2022-10-21T12:47:52.279Z,4.72
2022-10-21T12:53:07.672Z,5.68
2022-10-21T12:58:23.900Z,4.68
2022-10-21T13:03:51.013Z,5.40
2022-10-21T13:08:56.095Z,5.90
2022-10-21T13:14:33.521Z,5.47
2022-10-21T13:19:40.230Z,5.43
2022-10-21T13:24:43.391Z,5.40
2022-10-21T13:29:48.324Z,7.30
2022-10-21T13:35:32.321Z,5.35
2022-10-21T13:40:46.644Z,5.13
2022-10-21T13:45:50.834Z,5.25
2022-10-21T13:50:54.221Z,5.22
2022-10-21T13:56:00.786Z,5.85
2022-10-21T14:01:11.871Z,4.60
2022-10-21T14:06:19.779Z,4.90
2022-10-21T14:11:28.596Z,5.32
2022-10-21T14:16:33.972Z,6.20
2022-10-21T14:21:38.178Z,5.78
2022-10-21T14:26:46.135Z,5.22
2022-10-21T14:31:49.137Z,5.50
2022-10-21T14:37:06.756Z,4.97
2022-10-21T14:42:18.300Z,5.35
2022-10-21T14:47:23.352Z,4.45
2022-10-21T14:52:34.031Z,4.93
2022-10-21T14:57:40.691Z,4.75
2022-10-21T15:02:43.840Z,4.93
2022-10-21T15:07:46.684Z,4.78
2022-10-21T15:12:52.753Z,4.63
2022-10-21T15:18:02.800Z,4.30
2022-10-21T15:23:19.906Z,4.47
2022-10-21T15:28:26.055Z,4.55
2022-10-21T15:33:29.080Z,5.30
2022-10-21T15:38:32.133Z,5.18
2022-10-21T15:43:36.139Z,4.30
2022-10-21T15:48:38.899Z,4.78
2022-10-21T15:53:44.483Z,7.43
2022-10-21T15:58:48.709Z,3.92
2022-10-21T16:03:51.297Z,3.90
2022-10-21T16:08:54.043Z,4.38
2022-10-21T16:13:58.196Z,4.78
2022-10-21T16:19:00.960Z,5.45
2022-10-21T16:24:03.590Z,4.47
2022-10-21T16:29:07.993Z,5.38
2022-10-21T16:34:11.725Z,5.55
2022-10-21T16:39:16.039Z,5.00
2022-10-21T16:44:20.067Z,5.03
2022-10-21T16:49:24.740Z,4.88
2022-10-21T16:54:27.494Z,5.10
2022-10-21T16:59:31.477Z,4.97
2022-10-21T17:04:34.113Z,4.90
2022-10-21T17:09:36.778Z,4.55
2022-10-21T17:14:41.047Z,5.00
2022-10-21T17:19:43.744Z,5.45
2022-10-21T17:24:47.090Z,5.95
2022-10-21T17:29:51.121Z,5.15
2022-10-21T17:34:53.921Z,5.50
2022-10-21T17:39:56.548Z,5.78
2022-10-21T17:45:03.667Z,5.13
2022-10-21T17:50:07.950Z,5.40
2022-10-21T17:55:10.761Z,4.85
2022-10-21T18:00:15.278Z,4.38
2022-10-21T18:05:18.501Z,5.25
2022-10-21T18:10:21.253Z,4.68
2022-10-21T18:15:27.725Z,4.93
2022-10-21T18:20:30.446Z,5.03
2022-10-21T18:25:33.040Z,4.47
2022-10-21T18:30:42.659Z,4.72
2022-10-21T18:35:45.263Z,4.00
2022-10-21T18:40:56.468Z,4.47
2022-10-21T18:46:06.423Z,3.80
2022-10-21T18:51:11.088Z,4.25
2022-10-21T18:56:15.481Z,3.80
2022-10-21T19:01:20.840Z,3.83
2022-10-21T19:06:36.974Z,3.67
2022-10-21T19:11:40.220Z,3.20
2022-10-21T19:16:45.006Z,3.03
2022-10-21T19:21:47.756Z,2.70
2022-10-21T19:26:53.964Z,2.88
2022-10-21T19:31:57.953Z,2.97
2022-10-21T19:37:01.246Z,2.80
2022-10-21T19:42:03.880Z,2.92
2022-10-21T19:47:07.864Z,2.88
2022-10-21T19:52:10.693Z,2.28
2022-10-21T19:57:13.374Z,3.15
2022-10-21T20:02:17.378Z,2.50
2022-10-21T20:07:20.001Z,2.85
2022-10-21T20:12:22.740Z,2.47
2022-10-21T20:17:26.872Z,2.20
2022-10-21T20:22:29.470Z,2.00
2022-10-21T20:27:32.474Z,2.42
2022-10-21T20:32:36.433Z,2.33
2022-10-21T20:37:40.279Z,2.30
2022-10-21T20:42:47.704Z,2.10
2022-10-21T20:47:54.208Z,2.85
2022-10-21T20:52:56.952Z,2.13
2022-10-21T20:57:59.628Z,2.80
2022-10-21T21:03:03.830Z,3.00
2022-10-21T21:08:06.917Z,2.13
2022-10-21T21:13:09.619Z,2.40
2022-10-21T21:18:14.136Z,2.70
2022-10-21T21:23:16.868Z,3.58
2022-10-21T21:28:19.859Z,3.97
2022-10-21T21:33:23.912Z,2.70
2022-10-21T21:38:27.776Z,3.03
2022-10-21T21:43:31.214Z,3.22
2022-10-21T21:48:35.828Z,3.22
2022-10-21T21:53:39.126Z,3.70
2022-10-21T21:58:42.447Z,3.13
2022-10-21T22:03:47.432Z,3.10
2022-10-21T22:08:50.875Z,3.00
2022-10-21T22:13:54.043Z,2.90
2022-10-21T22:19:00.519Z,3.72
2022-10-21T22:24:03.172Z,4.15
2022-10-21T22:29:05.773Z,3.50
2022-10-21T22:34:12.046Z,4.45
2022-10-21T22:39:14.908Z,4.35
2022-10-21T22:44:17.563Z,3.17
2022-10-21T22:49:21.647Z,4.20
2022-10-21T22:54:46.432Z,4.28
2022-10-21T22:59:52.112Z,3.33
2022-10-21T23:04:57.138Z,3.22
2022-10-21T23:09:59.764Z,4.07
2022-10-21T23:15:02.476Z,4.10
2022-10-21T23:20:07.708Z,4.50
2022-10-21T23:25:10.751Z,3.47
2022-10-21T23:30:14.219Z,3.08
2022-10-21T23:35:18.896Z,3.63
2022-10-21T23:40:21.757Z,3.70
2022-10-21T23:45:24.654Z,3.95
2022-10-21T23:50:29.062Z,3.38
